Time;durP1;ratioP1;P1;durP2;ratioP2;P2;SDS_P1;SDS_P2;PMS_P1;PMS_P2;Temp;Humidity;BMP_temperature;BMP_pressure;BME280_temperature;BME280_humidity;BME280_pressure;Samples;Min_cycle;Max_cycle;Signal;HPM_P1;HPM_P2
2023/08/01 00:00:31;;;;;;;0.83;0.80;;;22.90;49.60;;;;;;5033327;28;20221;-66
2023/08/01 00:02:57;;;;;;;0.70;0.60;;;22.90;49.60;;;;;;5030870;28;20456;-66
2023/08/01 00:05:23;;;;;;;0.70;0.70;;;22.90;49.60;;;;;;5033398;28;20309;-66
2023/08/01 00:07:49;;;;;;;0.80;0.70;;;22.90;49.60;;;;;;5032822;28;21312;-66
2023/08/01 00:10:16;;;;;;;0.70;0.60;;;22.90;49.60;;;;;;5032216;28;20328;-66
2023/08/01 00:12:41;;;;;;;0.77;0.60;;;22.90;49.60;;;;;;5028871;28;20699;-66
2023/08/01 00:15:08;;;;;;;0.70;0.60;;;22.90;49.60;;;;;;5028378;28;20475;-67
2023/08/01 00:17:34;;;;;;;0.60;0.57;;;22.90;49.60;;;;;;5029926;28;20234;-66
2023/08/01 00:20:04;;;;;;;1.57;0.50;;;22.90;49.60;;;;;;5026343;28;20476;-66
2023/08/01 00:22:29;;;;;;;0.60;0.60;;;22.90;49.60;;;;;;5031908;28;20458;-66
2023/08/01 00:24:55;;;;;;;0.77;0.60;;;22.90;49.60;;;;;;5021846;28;20476;-66
2023/08/01 00:27:20;;;;;;;0.60;0.60;;;22.90;49.70;;;;;;5036116;28;20222;-66
2023/08/01 00:29:46;;;;;;;0.60;0.50;;;22.90;49.70;;;;;;5022834;28;20269;-66
2023/08/01 00:32:12;;;;;;;0.60;0.50;;;22.90;49.70;;;;;;5028448;28;20253;-66
2023/08/01 00:34:37;;;;;;;0.90;0.50;;;22.90;49.70;;;;;;5032532;28;20646;-66
2023/08/01 00:37:04;;;;;;;0.60;0.43;;;22.90;49.70;;;;;;5033041;28;20218;-66
2023/08/01 00:39:30;;;;;;;0.70;0.57;;;22.90;49.70;;;;;;5025624;28;20230;-66
2023/08/01 00:41:55;;;;;;;0.63;0.53;;;22.90;49.70;;;;;;5017416;28;20460;-66
2023/08/01 00:44:23;;;;;;;0.60;0.50;;;22.90;49.70;;;;;;5026994;28;20237;-66
2023/08/01 00:46:49;;;;;;;0.67;0.60;;;22.90;49.70;;;;;;5030815;28;20272;-66
2023/08/01 00:49:15;;;;;;;0.70;0.60;;;22.90;49.70;;;;;;5031837;28;20914;-66
2023/08/01 00:51:42;;;;;;;0.67;0.57;;;22.90;49.70;;;;;;5027320;28;20459;-66
2023/08/01 00:54:08;;;;;;;0.60;0.60;;;22.90;49.70;;;;;;5021142;28;20363;-66
2023/08/01 00:56:34;;;;;;;0.60;0.50;;;22.90;49.80;;;;;;5030209;28;20881;-66
2023/08/01 00:59:00;;;;;;;0.60;0.50;;;22.90;49.70;;;;;;5030986;28;20236;-66
2023/08/01 01:01:25;;;;;;;0.60;0.50;;;22.90;49.80;;;;;;5024457;28;20227;-66
2023/08/01 01:03:51;;;;;;;0.67;0.57;;;22.90;49.80;;;;;;5030932;28;20452;-66
2023/08/01 01:06:24;;;;;;;0.60;0.53;;;22.90;49.80;;;;;;5032301;28;20301;-66
2023/08/01 01:08:49;;;;;;;0.70;0.50;;;22.90;49.80;;;;;;5022755;28;20278;-66
2023/08/01 01:11:15;;;;;;;0.60;0.50;;;22.90;49.80;;;;;;5033861;28;20459;-65
2023/08/01 01:13:41;;;;;;;0.70;0.60;;;22.90;49.80;;;;;;5034696;28;20249;-67
2023/08/01 01:16:06;;;;;;;0.73;0.60;;;22.90;49.90;;;;;;5036568;28;20664;-66
2023/08/01 01:18:32;;;;;;;0.60;0.50;;;22.90;49.80;;;;;;5022484;28;20248;-66
2023/08/01 01:20:57;;;;;;;0.60;0.53;;;22.90;49.80;;;;;;5026682;28;20628;-66
2023/08/01 01:23:25;;;;;;;0.80;0.60;;;22.90;49.80;;;;;;5030440;28;20642;-66
2023/08/01 01:25:51;;;;;;;0.60;0.50;;;22.90;49.80;;;;;;5033905;28;20301;-67
2023/08/01 01:28:18;;;;;;;0.60;0.50;;;22.90;49.80;;;;;;5022409;28;20482;-66
2023/08/01 01:30:44;;;;;;;0.60;0.50;;;22.90;49.80;;;;;;5028759;28;20470;-66
2023/08/01 01:33:11;;;;;;;0.60;0.50;;;22.90;49.80;;;;;;5027509;28;21241;-66
2023/08/01 01:35:36;;;;;;;0.60;0.60;;;22.90;49.90;;;;;;5032545;28;20471;-66
2023/08/01 01:38:06;;;;;;;0.60;0.50;;;22.90;49.90;;;;;;5033866;28;20482;-66
2023/08/01 01:40:32;;;;;;;0.60;0.40;;;22.80;49.80;;;;;;5026034;28;20484;-66
2023/08/01 01:42:59;;;;;;;0.70;0.50;;;22.90;49.90;;;;;;5019434;28;20459;-66
2023/08/01 01:45:24;;;;;;;0.60;0.50;;;22.90;49.90;;;;;;5020922;28;20472;-66
2023/08/01 01:47:50;;;;;;;0.70;0.50;;;22.90;49.90;;;;;;5037046;28;20447;-66
2023/08/01 01:50:15;;;;;;;0.63;0.60;;;22.90;49.90;;;;;;5026715;28;20221;-66
2023/08/01 01:52:41;;;;;;;1.20;0.50;;;22.90;50.00;;;;;;5031224;28;20215;-66
2023/08/01 01:55:07;;;;;;;1.20;0.50;;;22.90;49.90;;;;;;5026140;28;20269;-67
2023/08/01 01:57:32;;;;;;;0.60;0.50;;;22.90;49.90;;;;;;5023332;28;20322;-66
2023/08/01 01:59:58;;;;;;;0.60;0.40;;;22.90;49.90;;;;;;5024877;28;20269;-65
2023/08/01 02:02:23;;;;;;;0.70;0.57;;;22.90;50.00;;;;;;5032359;28;20723;-66
2023/08/01 02:04:50;;;;;;;0.60;0.50;;;22.90;50.00;;;;;;5025145;28;20344;-66
2023/08/01 02:07:19;;;;;;;0.60;0.40;;;22.90;50.00;;;;;;5035662;28;20245;-66
2023/08/01 02:09:44;;;;;;;0.70;0.60;;;22.90;49.90;;;;;;5026077;28;20444;-67
2023/08/01 02:12:13;;;;;;;0.70;0.60;;;22.90;49.90;;;;;;5033671;28;20486;-67
2023/08/01 02:14:39;;;;;;;0.60;0.50;;;22.90;50.00;;;;;;5029228;28;20265;-66
2023/08/01 02:17:05;;;;;;;0.60;0.60;;;22.90;50.00;;;;;;5035346;28;20472;-66
2023/08/01 02:19:30;;;;;;;0.60;0.50;;;22.90;50.00;;;;;;5035308;28;20221;-66
2023/08/01 02:21:56;;;;;;;0.53;0.50;;;22.80;49.90;;;;;;5036215;28;20276;-66
2023/08/01 02:24:21;;;;;;;0.60;0.50;;;22.90;50.00;;;;;;5034465;28;20344;-66
2023/08/01 02:26:47;;;;;;;0.60;0.43;;;22.90;50.00;;;;;;5037985;28;20305;-67
2023/08/01 02:29:13;;;;;;;0.70;0.60;;;22.90;50.00;;;;;;5037638;28;21230;-66
2023/08/01 02:31:39;;;;;;;0.60;0.50;;;22.90;50.00;;;;;;5035640;28;20452;-67
2023/08/01 02:34:04;;;;;;;2.10;1.50;;;22.90;50.00;;;;;;5032039;28;20718;-66
2023/08/01 02:36:29;;;;;;;0.60;0.50;;;22.90;50.00;;;;;;5035136;28;20967;-66
2023/08/01 02:38:55;;;;;;;0.70;0.70;;;22.90;50.00;;;;;;5037990;28;20254;-66
2023/08/01 02:41:21;;;;;;;0.60;0.50;;;22.90;50.00;;;;;;5035989;28;20223;-66
2023/08/01 02:43:46;;;;;;;0.60;0.50;;;22.90;50.00;;;;;;5036638;28;20223;-66
2023/08/01 02:46:11;;;;;;;0.70;0.53;;;22.90;50.00;;;;;;5034427;28;20259;-66
2023/08/01 02:48:37;;;;;;;0.73;0.60;;;22.90;50.10;;;;;;5032169;28;20241;-66
2023/08/01 02:51:03;;;;;;;0.70;0.60;;;22.90;50.00;;;;;;5023236;28;20222;-66
2023/08/01 02:53:28;;;;;;;0.70;0.60;;;22.80;49.90;;;;;;5030502;28;20242;-65
2023/08/01 02:55:54;;;;;;;0.70;0.60;;;22.90;50.00;;;;;;5032528;28;20703;-66
2023/08/01 02:58:19;;;;;;;0.60;0.60;;;22.80;49.90;;;;;;5028252;28;20233;-66
2023/08/01 03:00:47;;;;;;;0.80;0.70;;;22.80;49.90;;;;;;5013964;28;20227;-66
2023/08/01 03:03:13;;;;;;;0.70;0.60;;;22.80;49.90;;;;;;5018888;28;20738;-66
2023/08/01 03:05:38;;;;;;;0.60;0.60;;;22.80;50.00;;;;;;5024968;28;20451;-66
2023/08/01 03:08:04;;;;;;;0.80;0.80;;;22.80;50.00;;;;;;5033087;28;20317;-66
2023/08/01 03:10:30;;;;;;;0.70;0.60;;;22.80;50.00;;;;;;5034199;28;20253;-65
2023/08/01 03:12:56;;;;;;;0.80;0.80;;;22.80;49.90;;;;;;5033322;28;20490;-66
2023/08/01 03:15:21;;;;;;;0.70;0.63;;;22.80;50.00;;;;;;5035197;28;20235;-66
2023/08/01 03:17:47;;;;;;;0.70;0.70;;;22.80;49.90;;;;;;5036414;28;20386;-66
2023/08/01 03:20:12;;;;;;;1.20;0.80;;;22.80;49.90;;;;;;5035680;28;20605;-66
2023/08/01 03:22:42;;;;;;;2.73;1.00;;;22.80;49.90;;;;;;5035510;28;20233;-66
2023/08/01 03:25:08;;;;;;;0.83;0.83;;;22.80;50.00;;;;;;5035701;28;20234;-65
2023/08/01 03:27:34;;;;;;;0.83;0.83;;;22.80;49.90;;;;;;5027088;28;20467;-65
2023/08/01 03:30:00;;;;;;;0.93;0.93;;;22.80;49.90;;;;;;5019660;28;20314;-66
2023/08/01 03:32:25;;;;;;;0.70;0.60;;;22.80;49.90;;;;;;5027884;28;20470;-66
2023/08/01 03:34:51;;;;;;;0.83;0.83;;;22.80;49.90;;;;;;5024702;28;20238;-66
2023/08/01 03:37:17;;;;;;;1.00;0.90;;;22.80;49.90;;;;;;5033008;28;20560;-66
2023/08/01 03:39:43;;;;;;;1.00;0.90;;;22.80;49.90;;;;;;5033723;28;20219;-66
2023/08/01 03:42:09;;;;;;;0.90;0.90;;;22.80;49.90;;;;;;5034841;28;21639;-66
2023/08/01 03:44:35;;;;;;;1.00;1.00;;;22.80;49.90;;;;;;5026785;28;20233;-66
2023/08/01 03:47:00;;;;;;;1.00;0.90;;;22.80;49.90;;;;;;5032458;28;20226;-65
2023/08/01 03:49:26;;;;;;;1.13;1.03;;;22.80;49.90;;;;;;5033195;28;20214;-65
2023/08/01 03:51:51;;;;;;;1.10;1.00;;;22.80;49.90;;;;;;5031647;28;20262;-66
2023/08/01 03:54:17;;;;;;;1.10;1.00;;;22.80;49.90;;;;;;5034302;28;20230;-65
2023/08/01 03:56:43;;;;;;;1.10;1.00;;;22.80;49.90;;;;;;5017037;28;20218;-66
2023/08/01 03:59:11;;;;;;;1.10;1.00;;;22.80;49.80;;;;;;5034091;28;20249;-65
2023/08/01 04:01:36;;;;;;;1.10;1.00;;;22.80;49.80;;;;;;5034523;28;21465;-66
2023/08/01 04:04:02;;;;;;;1.30;1.20;;;22.80;49.80;;;;;;5032245;28;20550;-66
2023/08/01 04:06:28;;;;;;;1.40;1.30;;;22.80;49.90;;;;;;5031015;28;20303;-65
2023/08/01 04:08:53;;;;;;;1.27;1.17;;;22.80;49.80;;;;;;5032180;28;20685;-66
2023/08/01 04:11:19;;;;;;;1.47;1.30;;;22.80;49.80;;;;;;5033161;28;20264;-66
2023/08/01 04:13:44;;;;;;;1.30;1.17;;;22.80;49.80;;;;;;5043383;28;20226;-66
2023/08/01 04:16:10;;;;;;;1.13;1.03;;;22.80;49.80;;;;;;5023389;28;20242;-66
2023/08/01 04:18:35;;;;;;;1.50;1.40;;;22.80;49.80;;;;;;5031598;28;20581;-66
2023/08/01 04:21:02;;;;;;;1.70;1.60;;;22.80;49.80;;;;;;5021957;28;20227;-66
2023/08/01 04:23:27;;;;;;;1.50;1.40;;;22.80;49.80;;;;;;5030822;28;20225;-66
2023/08/01 04:25:53;;;;;;;1.40;1.30;;;22.80;49.80;;;;;;5026549;28;20443;-65
2023/08/01 04:28:19;;;;;;;1.93;1.40;;;22.80;49.80;;;;;;5019655;28;20275;-66
2023/08/01 04:30:51;;;;;;;1.47;1.37;;;22.80;49.70;;;;;;5019203;28;20229;-67
2023/08/01 04:33:17;;;;;;;1.57;1.47;;;22.80;49.70;;;;;;5018323;28;20251;-66
2023/08/01 04:35:43;;;;;;;1.40;1.30;;;22.80;49.70;;;;;;5026274;28;20490;-66
2023/08/01 04:38:10;;;;;;;1.60;1.50;;;22.80;49.70;;;;;;5031547;28;20222;-67
2023/08/01 04:40:36;;;;;;;1.50;1.40;;;22.80;49.60;;;;;;5018850;28;20238;-68
2023/08/01 04:43:02;;;;;;;1.60;1.50;;;22.90;49.60;;;;;;5028177;28;20477;-66
2023/08/01 04:45:28;;;;;;;1.70;1.60;;;22.90;49.50;;;;;;5031787;28;20234;-67
2023/08/01 04:47:53;;;;;;;1.53;1.43;;;22.90;49.50;;;;;;5034774;28;20455;-66
2023/08/01 04:50:19;;;;;;;1.90;1.80;;;22.90;49.40;;;;;;5030623;28;20986;-66
2023/08/01 04:52:44;;;;;;;1.90;1.80;;;22.90;49.20;;;;;;5027587;28;20687;-66
2023/08/01 04:55:10;;;;;;;1.87;1.77;;;22.90;49.20;;;;;;5016733;28;20234;-66
2023/08/01 04:57:35;;;;;;;1.70;1.60;;;22.90;49.20;;;;;;5029622;28;20789;-67
2023/08/01 05:00:02;;;;;;;1.73;1.63;;;22.90;49.20;;;;;;5019722;28;20596;-66
2023/08/01 05:02:28;;;;;;;2.27;1.60;;;22.90;49.20;;;;;;5017827;28;20222;-67
2023/08/01 05:04:53;;;;;;;3.37;1.80;;;22.90;49.20;;;;;;5021821;28;20524;-66
2023/08/01 05:07:19;;;;;;;2.00;1.90;;;22.90;49.30;;;;;;5016074;28;20329;-66
2023/08/01 05:09:44;;;;;;;2.00;1.90;;;22.90;49.30;;;;;;5025784;28;20222;-66
2023/08/01 05:12:10;;;;;;;2.20;2.03;;;22.90;49.20;;;;;;5029080;28;20221;-66
2023/08/01 05:14:35;;;;;;;2.00;1.80;;;22.90;49.20;;;;;;5024467;28;20721;-67
2023/08/01 05:17:01;;;;;;;2.17;2.07;;;22.90;49.30;;;;;;5031217;28;20234;-67
2023/08/01 05:19:26;;;;;;;1.80;1.70;;;22.90;49.20;;;;;;5022049;28;20304;-67
2023/08/01 05:21:52;;;;;;;1.93;1.83;;;22.90;49.20;;;;;;5024082;28;20238;-67
2023/08/01 05:24:18;;;;;;;2.10;1.90;;;22.90;49.20;;;;;;5032181;28;20301;-68
2023/08/01 05:26:43;;;;;;;2.20;2.10;;;22.90;49.20;;;;;;5037106;28;20352;-68
2023/08/01 05:29:09;;;;;;;2.27;2.17;;;22.90;49.10;;;;;;5024622;28;20224;-67
2023/08/01 05:31:34;;;;;;;1.93;1.83;;;22.90;49.20;;;;;;5029346;28;20219;-67
2023/08/01 05:34:00;;;;;;;2.37;2.17;;;22.90;49.20;;;;;;5034032;28;20242;-67
2023/08/01 05:36:25;;;;;;;2.40;2.17;;;22.90;49.20;;;;;;5032212;28;20262;-67
2023/08/01 05:38:51;;;;;;;2.90;2.20;;;22.90;49.20;;;;;;5035013;28;20235;-66
2023/08/01 05:41:16;;;;;;;2.00;1.90;;;22.90;49.20;;;;;;5032812;28;20830;-67
2023/08/01 05:43:42;;;;;;;2.10;2.00;;;22.90;49.20;;;;;;5024640;28;20857;-67
2023/08/01 05:46:07;;;;;;;2.40;2.30;;;22.90;49.20;;;;;;5030664;28;20260;-66
2023/08/01 05:48:33;;;;;;;2.10;2.00;;;22.90;49.20;;;;;;5028310;28;20678;-66
2023/08/01 05:50:58;;;;;;;2.10;2.00;;;22.90;49.10;;;;;;5024806;28;20888;-67
2023/08/01 05:53:24;;;;;;;2.37;2.17;;;22.90;49.10;;;;;;5012367;28;20704;-66
2023/08/01 05:55:50;;;;;;;2.60;2.50;;;22.90;49.10;;;;;;5020289;28;20682;-64
2023/08/01 05:58:15;;;;;;;2.93;2.63;;;22.90;49.10;;;;;;5016586;28;20214;-65
2023/08/01 06:00:41;;;;;;;2.50;2.20;;;22.90;49.10;;;;;;5032688;28;20962;-65
2023/08/01 06:03:06;;;;;;;2.83;2.63;;;22.90;49.10;;;;;;5034793;28;20226;-65
2023/08/01 06:05:32;;;;;;;3.20;2.90;;;22.90;49.10;;;;;;5024074;28;20229;-65
2023/08/01 06:07:57;;;;;;;2.80;2.50;;;22.90;49.10;;;;;;5016943;28;20675;-65
2023/08/01 06:10:23;;;;;;;2.37;2.27;;;22.90;49.00;;;;;;5031826;28;20222;-66
2023/08/01 06:12:49;;;;;;;3.03;2.37;;;22.90;49.00;;;;;;5024688;28;21021;-65
2023/08/01 06:15:14;;;;;;;2.53;2.33;;;22.90;49.10;;;;;;5034896;28;20245;-65
2023/08/01 06:17:40;;;;;;;2.57;2.47;;;22.90;49.00;;;;;;5035062;28;20225;-65
2023/08/01 06:20:06;;;;;;;2.23;2.13;;;22.90;49.00;;;;;;5034295;28;20674;-65
2023/08/01 06:22:32;;;;;;;5.90;2.60;;;22.90;49.00;;;;;;5036871;28;20277;-65
2023/08/01 06:24:57;;;;;;;2.80;2.60;;;22.90;49.00;;;;;;5033411;28;20478;-66
2023/08/01 06:27:23;;;;;;;2.50;2.30;;;22.90;49.00;;;;;;5028270;28;20229;-65
2023/08/01 06:29:49;;;;;;;2.83;2.53;;;22.90;49.00;;;;;;5026402;28;20211;-65
2023/08/01 06:32:14;;;;;;;2.80;2.60;;;22.90;49.00;;;;;;5033974;28;20226;-65
2023/08/01 06:34:40;;;;;;;3.10;2.80;;;22.90;48.90;;;;;;5024963;28;20340;-65
2023/08/01 06:37:05;;;;;;;3.20;2.53;;;22.90;49.00;;;;;;5024006;28;20229;-65
2023/08/01 06:39:31;;;;;;;3.10;2.90;;;22.90;49.70;;;;;;5032394;28;20218;-65
2023/08/01 06:41:56;;;;;;;2.67;2.47;;;22.90;48.90;;;;;;5028887;28;20222;-65
2023/08/01 06:44:22;;;;;;;2.90;2.63;;;22.90;48.90;;;;;;5027073;28;20334;-65
2023/08/01 06:46:47;;;;;;;2.30;2.10;;;22.90;48.90;;;;;;5033476;28;20325;-65
2023/08/01 06:49:13;;;;;;;2.27;2.17;;;22.90;48.90;;;;;;5023904;28;20219;-65
2023/08/01 06:51:38;;;;;;;2.60;2.47;;;22.90;48.90;;;;;;5036305;28;20218;-65
2023/08/01 06:54:04;;;;;;;2.85;2.55;;;22.90;48.90;;;;;;5031433;28;20261;-65
2023/08/01 06:56:29;;;;;;;2.80;2.60;;;22.90;48.90;;;;;;5031618;28;20689;-65
2023/08/01 06:58:55;;;;;;;2.77;2.57;;;22.90;48.90;;;;;;5031270;28;20218;-65
2023/08/01 07:01:22;;;;;;;2.90;2.70;;;22.90;48.90;;;;;;5032110;28;20226;-65
2023/08/01 07:03:48;;;;;;;3.43;2.77;;;22.90;48.80;;;;;;5022240;28;20219;-65
2023/08/01 07:06:13;;;;;;;3.60;2.73;;;22.90;48.80;;;;;;5029435;28;20565;-65
2023/08/01 07:08:39;;;;;;;7.20;2.87;;;22.90;48.90;;;;;;5024167;28;20696;-65
2023/08/01 07:11:04;;;;;;;2.67;2.57;;;22.90;48.80;;;;;;5031762;28;20245;-65
2023/08/01 07:13:30;;;;;;;2.70;2.60;;;22.90;48.80;;;;;;5025052;28;20215;-65
2023/08/01 07:15:55;;;;;;;3.00;2.80;;;22.90;48.80;;;;;;5031905;28;20685;-65
2023/08/01 07:18:21;;;;;;;2.77;2.57;;;22.90;48.80;;;;;;5034908;28;20791;-66
2023/08/01 07:20:46;;;;;;;3.80;3.10;;;22.90;48.80;;;;;;5032448;28;20229;-65
2023/08/01 07:23:12;;;;;;;2.70;2.50;;;22.90;48.80;;;;;;5016891;28;20909;-65
2023/08/01 07:25:37;;;;;;;2.87;2.77;;;22.90;48.90;;;;;;5017570;28;20225;-65
2023/08/01 07:28:03;;;;;;;2.80;2.60;;;22.90;48.80;;;;;;5027337;28;20234;-65
2023/08/01 07:30:29;;;;;;;2.87;2.67;;;22.90;48.70;;;;;;5024853;28;21170;-65
2023/08/01 07:32:54;;;;;;;2.40;2.30;;;22.90;48.70;;;;;;5024916;28;20218;-65
2023/08/01 07:35:20;;;;;;;2.87;2.67;;;22.90;48.70;;;;;;5020625;28;20230;-65
2023/08/01 07:37:45;;;;;;;2.67;2.57;;;22.90;48.60;;;;;;5023011;28;20221;-65
2023/08/01 07:40:11;;;;;;;2.90;2.60;;;22.90;48.70;;;;;;5014800;28;20257;-65
2023/08/01 07:42:36;;;;;;;3.30;3.10;;;22.90;48.60;;;;;;5028573;28;20272;-65
2023/08/01 07:45:02;;;;;;;2.93;2.73;;;22.90;48.70;;;;;;5022962;28;20250;-65
2023/08/01 07:47:28;;;;;;;3.20;3.00;;;22.90;48.70;;;;;;5028266;28;20226;-65
2023/08/01 07:49:53;;;;;;;2.80;2.60;;;22.90;48.70;;;;;;5037652;28;20241;-66
2023/08/01 07:52:19;;;;;;;2.93;2.73;;;22.90;48.60;;;;;;5030438;28;20982;-65
2023/08/01 07:54:44;;;;;;;2.80;2.60;;;22.90;48.70;;;;;;5034796;28;20353;-66
2023/08/01 07:57:11;;;;;;;2.80;2.60;;;22.90;48.60;;;;;;5034587;28;20229;-65
2023/08/01 07:59:36;;;;;;;2.90;2.70;;;22.90;48.60;;;;;;5032242;28;20222;-65
2023/08/01 08:02:02;;;;;;;2.53;2.33;;;22.90;48.60;;;;;;5013126;28;20470;-65
2023/08/01 08:04:28;;;;;;;2.70;2.50;;;22.90;48.60;;;;;;5024544;28;20226;-65
2023/08/01 08:06:54;;;;;;;2.83;2.63;;;22.90;48.60;;;;;;5024270;28;20222;-65
2023/08/01 08:09:22;;;;;;;2.80;2.60;;;22.90;48.50;;;;;;5006000;28;20256;-65
2023/08/01 08:11:48;;;;;;;2.67;2.47;;;22.90;48.50;;;;;;5018690;28;20466;-65
2023/08/01 08:14:15;;;;;;;2.60;2.50;;;22.90;48.50;;;;;;5035250;28;20497;-65
2023/08/01 08:16:40;;;;;;;3.33;3.03;;;22.90;48.50;;;;;;5023579;28;20682;-65
2023/08/01 08:19:06;;;;;;;2.50;2.37;;;22.90;48.50;;;;;;5029690;28;20470;-65
2023/08/01 08:21:31;;;;;;;3.23;2.50;;;22.90;48.50;;;;;;5032540;28;20237;-65
2023/08/01 08:23:57;;;;;;;3.03;2.87;;;22.90;48.50;;;;;;5031757;28;20218;-65
2023/08/01 08:26:23;;;;;;;2.73;2.53;;;22.90;48.50;;;;;;5031066;28;20222;-65
2023/08/01 08:28:49;;;;;;;2.77;2.57;;;22.90;48.50;;;;;;5030280;28;20272;-65
2023/08/01 08:31:15;;;;;;;2.50;2.40;;;22.90;48.40;;;;;;5033049;28;20456;-65
2023/08/01 08:33:40;;;;;;;2.70;2.50;;;22.90;48.30;;;;;;5032048;28;20296;-65
2023/08/01 08:36:06;;;;;;;2.30;2.20;;;22.90;48.40;;;;;;5032940;28;20244;-65
2023/08/01 08:38:31;;;;;;;2.50;2.40;;;22.90;48.40;;;;;;5024051;28;20234;-65
2023/08/01 08:41:09;;;;;;;2.80;2.67;;;22.90;48.40;;;;;;5020384;28;20218;-65
2023/08/01 08:43:35;;;;;;;3.60;3.40;;;22.90;48.30;;;;;;5013473;28;20309;-65
2023/08/01 08:46:02;;;;;;;2.50;2.30;;;22.90;48.30;;;;;;5041606;28;20817;-65
2023/08/01 08:48:29;;;;;;;2.60;2.33;;;22.90;48.40;;;;;;5020894;28;20465;-65
2023/08/01 08:51:00;;;;;;;3.10;2.90;;;22.90;48.30;;;;;;5031207;28;20462;-65
2023/08/01 08:53:26;;;;;;;2.87;2.77;;;22.90;48.40;;;;;;5032199;28;20496;-65
2023/08/01 08:55:52;;;;;;;2.90;2.70;;;22.90;48.30;;;;;;5033456;28;20593;-65
2023/08/01 08:58:18;;;;;;;3.00;2.80;;;22.90;48.40;;;;;;5034586;28;20331;-65
2023/08/01 09:00:44;;;;;;;2.53;2.40;;;22.90;48.30;;;;;;5030000;28;20311;-65
2023/08/01 09:03:10;;;;;;;2.80;2.60;;;22.90;48.30;;;;;;5020341;28;20923;-65
2023/08/01 09:05:49;;;;;;;3.30;3.10;;;22.90;48.20;;;;;;5010957;28;20463;-66
2023/08/01 09:08:19;;;;;;;2.83;2.63;;;22.90;48.30;;;;;;5015762;28;20226;-65
2023/08/01 09:10:45;;;;;;;2.70;2.50;;;22.90;48.30;;;;;;5013954;28;20497;-65
2023/08/01 09:13:10;;;;;;;2.60;2.40;;;22.90;48.20;;;;;;5028163;28;20466;-65
2023/08/01 09:15:37;;;;;;;2.97;2.67;;;22.90;48.30;;;;;;5032245;28;20240;-65
2023/08/01 09:18:06;;;;;;;2.80;2.60;;;22.90;48.30;;;;;;5025995;28;20657;-65
2023/08/01 09:20:46;;;;;;;2.63;2.43;;;22.90;48.20;;;;;;5034684;28;20530;-65
2023/08/01 09:23:12;;;;;;;2.97;2.77;;;22.90;48.20;;;;;;5034255;28;20578;-65
2023/08/01 09:25:38;;;;;;;2.83;2.73;;;22.90;48.20;;;;;;5031203;28;20550;-65
2023/08/01 09:28:16;;;;;;;2.53;2.33;;;22.90;48.20;;;;;;5033812;28;20451;-65
2023/08/01 09:30:49;;;;;;;2.90;2.70;;;22.90;48.20;;;;;;5032508;28;20626;-65
2023/08/01 09:33:15;;;;;;;2.97;2.77;;;22.90;48.20;;;;;;5030712;28;20632;-65
2023/08/01 09:35:40;;;;;;;2.57;2.47;;;22.90;48.20;;;;;;5031177;28;20475;-65
2023/08/01 09:38:06;;;;;;;2.80;2.70;;;22.90;48.20;;;;;;5023203;28;20670;-65
2023/08/01 09:40:38;;;;;;;3.20;2.90;;;22.90;48.10;;;;;;5033612;28;20257;-66
2023/08/01 09:43:04;;;;;;;3.20;3.00;;;22.90;48.20;;;;;;5036253;28;20325;-65
2023/08/01 09:45:29;;;;;;;2.73;2.53;;;22.90;48.10;;;;;;5033945;28;20468;-65
2023/08/01 09:47:55;;;;;;;2.70;2.50;;;22.90;48.10;;;;;;5034371;28;20809;-65
2023/08/01 09:50:22;;;;;;;2.93;2.73;;;22.90;48.90;;;;;;5033841;28;20404;-65
2023/08/01 09:52:52;;;;;;;2.40;2.30;;;22.90;48.10;;;;;;5031525;28;20226;-65
2023/08/01 09:55:30;;;;;;;2.40;2.20;;;22.90;48.10;;;;;;5026800;28;20572;-65
2023/08/01 09:57:58;;;;;;;2.63;2.50;;;22.90;48.10;;;;;;5015065;28;21006;-65
2023/08/01 10:00:26;;;;;;;2.83;2.67;;;22.90;48.10;;;;;;5023649;28;20998;-65
2023/08/01 10:02:53;;;;;;;2.50;2.33;;;22.90;48.00;;;;;;5022749;28;20443;-65
2023/08/01 10:05:19;;;;;;;3.73;2.50;;;22.90;48.00;;;;;;5018491;28;20444;-65
2023/08/01 10:07:47;;;;;;;2.27;2.07;;;22.90;48.00;;;;;;5020527;28;20443;-65
2023/08/01 10:10:13;;;;;;;2.80;2.60;;;22.90;48.10;;;;;;5032550;28;20459;-66
2023/08/01 10:12:42;;;;;;;2.63;2.53;;;22.90;48.00;;;;;;5035177;28;20544;-65
2023/08/01 10:15:08;;;;;;;2.77;2.57;;;22.90;48.10;;;;;;5032834;28;20479;-66
2023/08/01 10:17:35;;;;;;;2.50;2.40;;;22.90;48.00;;;;;;5032111;28;20466;-65
2023/08/01 10:20:01;;;;;;;2.50;2.40;;;22.90;48.00;;;;;;5031720;28;20736;-65
2023/08/01 10:22:27;;;;;;;2.80;2.50;;;22.90;47.90;;;;;;5021931;28;20480;-65
2023/08/01 10:24:53;;;;;;;2.17;2.07;;;22.90;48.00;;;;;;5028430;28;20599;-65
2023/08/01 10:27:20;;;;;;;2.80;2.67;;;22.90;48.00;;;;;;5033904;28;20299;-65
2023/08/01 10:29:56;;;;;;;2.60;2.40;;;22.90;48.00;;;;;;5033547;28;20483;-65
2023/08/01 10:32:35;;;;;;;2.60;2.50;;;22.90;48.00;;;;;;5032947;28;20455;-65
2023/08/01 10:35:02;;;;;;;2.97;2.77;;;22.90;47.90;;;;;;5016402;28;20476;-66
2023/08/01 10:37:38;;;;;;;2.50;2.40;;;22.90;47.90;;;;;;5022188;28;20702;-65
2023/08/01 10:40:05;;;;;;;3.30;2.60;;;22.90;47.90;;;;;;5020064;28;20487;-65
2023/08/01 10:42:43;;;;;;;3.00;2.80;;;22.90;47.90;;;;;;5029584;28;20872;-65
2023/08/01 10:45:23;;;;;;;2.60;2.40;;;22.90;47.80;;;;;;5034251;28;20467;-65
2023/08/01 10:47:50;;;;;;;2.40;2.30;;;22.90;47.80;;;;;;5032434;28;20479;-65
2023/08/01 10:50:16;;;;;;;2.57;2.37;;;22.90;47.80;;;;;;5029857;28;21033;-65
2023/08/01 10:52:42;;;;;;;2.30;2.20;;;22.90;47.90;;;;;;5036144;28;21235;-65
2023/08/01 10:55:08;;;;;;;2.63;2.43;;;22.90;47.70;;;;;;5015787;28;20882;-67
2023/08/01 10:57:39;;;;;;;2.73;2.63;;;22.90;47.80;;;;;;5018176;28;20489;-64
2023/08/01 11:00:09;;;;;;;2.40;2.20;;;22.90;48.50;;;;;;5025471;28;20230;-63
2023/08/01 11:02:35;;;;;;;2.10;2.00;;;22.90;47.70;;;;;;5029292;28;20557;-63
2023/08/01 11:05:03;;;;;;;2.37;2.17;;;22.90;47.70;;;;;;5011978;28;20464;-64
2023/08/01 11:07:29;;;;;;;2.53;2.40;;;22.90;47.70;;;;;;5030945;28;20468;-64
2023/08/01 11:10:11;;;;;;;2.27;2.07;;;22.90;47.70;;;;;;5031560;28;20463;-63
2023/08/01 11:12:41;;;;;;;2.50;2.40;;;22.90;47.60;;;;;;5023486;28;20222;-63
2023/08/01 11:15:09;;;;;;;2.40;2.30;;;22.90;47.70;;;;;;5019343;28;20475;-64
2023/08/01 11:17:39;;;;;;;2.40;2.30;;;22.90;47.60;;;;;;5033250;28;20463;-64
2023/08/01 11:20:10;;;;;;;2.57;2.37;;;22.90;47.70;;;;;;5026066;28;20479;-64
2023/08/01 11:22:57;;;;;;;2.70;2.50;;;22.90;47.60;;;;;;5031130;28;20478;-63
2023/08/01 11:25:37;;;;;;;2.33;2.23;;;22.90;47.60;;;;;;5016079;28;21018;-64
2023/08/01 11:28:07;;;;;;;2.23;2.03;;;22.90;48.30;;;;;;5025812;28;20467;-63
2023/08/01 11:30:33;;;;;;;2.40;2.30;;;22.90;47.50;;;;;;5017988;28;20525;-63
2023/08/01 11:33:00;;;;;;;2.53;2.43;;;22.90;47.50;;;;;;5021377;28;20499;-64
2023/08/01 11:35:25;;;;;;;10.93;2.70;;;22.90;47.50;;;;;;5018255;28;20468;-64
2023/08/01 11:37:51;;;;;;;2.63;2.53;;;22.90;47.50;;;;;;5020800;28;20828;-63
2023/08/01 11:40:17;;;;;;;2.37;2.17;;;22.90;47.50;;;;;;5024716;28;20285;-64
2023/08/01 11:42:43;;;;;;;2.60;2.50;;;22.90;47.40;;;;;;5024318;28;20456;-64
2023/08/01 11:45:12;;;;;;;2.50;2.37;;;22.90;47.40;;;;;;5022317;28;20475;-63
2023/08/01 11:47:44;;;;;;;2.80;2.60;;;22.90;47.50;;;;;;5017188;28;20246;-63
2023/08/01 11:50:10;;;;;;;2.40;2.20;;;22.90;47.50;;;;;;5019044;28;21018;-63
2023/08/01 11:52:35;;;;;;;2.47;2.37;;;22.90;47.60;;;;;;5008975;28;20459;-63
2023/08/01 11:55:01;;;;;;;2.40;2.30;;;22.90;47.60;;;;;;5019615;28;20709;-64
2023/08/01 11:57:26;;;;;;;2.83;2.50;;;22.90;47.60;;;;;;5020317;28;20304;-64
2023/08/01 11:59:54;;;;;;;2.43;2.33;;;22.90;47.50;;;;;;5030141;28;20229;-64
2023/08/01 12:02:32;;;;;;;2.20;2.10;;;22.90;47.60;;;;;;5033632;28;20269;-65
2023/08/01 12:04:58;;;;;;;2.53;2.33;;;22.90;47.60;;;;;;5027955;28;21262;-65
2023/08/01 12:07:27;;;;;;;3.47;1.90;;;22.90;47.60;;;;;;5027601;28;21514;-66
2023/08/01 12:10:00;;;;;;;2.30;2.20;;;22.90;47.60;;;;;;5007451;28;20222;-65
2023/08/01 12:12:27;;;;;;;2.33;2.07;;;22.90;47.70;;;;;;5028837;28;20450;-65
2023/08/01 12:14:54;;;;;;;2.37;2.27;;;22.90;47.70;;;;;;5031526;28;20471;-65
2023/08/01 12:17:19;;;;;;;2.20;2.10;;;22.90;47.70;;;;;;5034261;28;20458;-65
2023/08/01 12:19:45;;;;;;;1.97;1.87;;;22.90;47.80;;;;;;5023805;28;20733;-65
2023/08/01 12:22:11;;;;;;;2.77;2.57;;;22.90;47.80;;;;;;5030550;28;20248;-65
2023/08/01 12:24:37;;;;;;;2.33;2.23;;;22.90;47.80;;;;;;5029625;28;20462;-65
2023/08/01 12:27:06;;;;;;;1.97;1.87;;;22.90;47.80;;;;;;5022727;28;20225;-65
2023/08/01 12:29:31;;;;;;;2.33;2.23;;;22.90;47.80;;;;;;5013374;28;20486;-64
2023/08/01 12:31:57;;;;;;;2.17;2.07;;;22.90;47.90;;;;;;5018892;28;20464;-65
2023/08/01 12:34:22;;;;;;;2.43;2.10;;;22.90;47.90;;;;;;5019585;28;20253;-65
2023/08/01 12:36:48;;;;;;;1.70;1.60;;;22.90;47.90;;;;;;5027714;28;20218;-65
2023/08/01 12:39:13;;;;;;;2.50;2.30;;;22.90;47.90;;;;;;5032723;28;20214;-65
2023/08/01 12:41:39;;;;;;;2.50;2.30;;;22.90;47.90;;;;;;5032127;28;20769;-65
2023/08/01 12:44:04;;;;;;;1.93;1.83;;;22.90;48.00;;;;;;5030532;28;20229;-65